createdAt,value
2023-03-02T00:03:33.813Z,-4.49
2023-03-02T00:08:38.685Z,-4.46
2023-03-02T00:13:42.686Z,-4.52
2023-03-02T00:18:46.242Z,-4.58
2023-03-02T00:23:49.923Z,-4.61
2023-03-02T00:28:56.153Z,-4.62
2023-03-02T00:33:59.786Z,-4.65
2023-03-02T00:39:04.924Z,-4.68
2023-03-02T00:44:08.538Z,-4.70
2023-03-02T00:49:13.287Z,-4.66
2023-03-02T00:54:17.361Z,-4.64
2023-03-02T00:59:29.657Z,-4.60
2023-03-02T01:04:46.636Z,-4.48
2023-03-02T01:09:50.584Z,-4.40
2023-03-02T01:14:56.694Z,-4.36
2023-03-02T01:20:00.910Z,-4.41
2023-03-02T01:25:06.558Z,-4.52
2023-03-02T01:30:11.209Z,-4.65
2023-03-02T01:35:14.918Z,-4.76
2023-03-02T01:40:18.718Z,-4.80
2023-03-02T01:45:46.311Z,-4.72
2023-03-02T01:50:53.496Z,-4.63
2023-03-02T01:56:00.129Z,-4.62
2023-03-02T02:01:05.305Z,-4.70
2023-03-02T02:06:18.650Z,-4.79
2023-03-02T02:11:22.765Z,-4.81
2023-03-02T02:16:33.058Z,-4.90
2023-03-02T02:21:38.296Z,-5.02
2023-03-02T02:26:56.189Z,-5.16
2023-03-02T02:32:07.010Z,-5.23
2023-03-02T02:37:21.016Z,-5.27
2023-03-02T02:42:34.896Z,-5.35
2023-03-02T02:47:39.158Z,-5.39
2023-03-02T02:52:44.986Z,-5.32
2023-03-02T02:57:53.631Z,-5.24
2023-03-02T03:03:29.925Z,-5.22
2023-03-02T03:08:42.423Z,-5.24
2023-03-02T03:13:48.201Z,-5.23
2023-03-02T03:18:52.840Z,-5.13
2023-03-02T03:24:12.865Z,-4.92
2023-03-02T03:29:17.394Z,-4.93
2023-03-02T03:34:22.116Z,-5.01
2023-03-02T03:39:25.854Z,-4.99
2023-03-02T03:44:30.060Z,-4.93
2023-03-02T03:49:34.020Z,-5.07
2023-03-02T03:54:38.721Z,-5.31
2023-03-02T03:59:44.043Z,-5.45
2023-03-02T04:04:48.614Z,-5.48
2023-03-02T04:10:03.927Z,-5.51
2023-03-02T04:15:15.052Z,-5.64
2023-03-02T04:20:24.374Z,-5.71
2023-03-02T04:25:31.563Z,-5.71
2023-03-02T04:30:44.091Z,-5.72
2023-03-02T04:35:48.392Z,-5.71
2023-03-02T04:40:52.127Z,-5.76
2023-03-02T04:45:56.844Z,-5.76
2023-03-02T04:51:00.870Z,-5.86
2023-03-02T04:56:04.906Z,-5.94
2023-03-02T05:01:10.748Z,-5.90
2023-03-02T05:06:15.120Z,-5.83
2023-03-02T05:11:30.270Z,-5.66
2023-03-02T05:16:36.901Z,-5.64
2023-03-02T05:21:40.942Z,-5.73
2023-03-02T05:26:46.616Z,-5.74
2023-03-02T05:31:51.355Z,-5.72
2023-03-02T05:36:55.359Z,-5.69
2023-03-02T05:41:58.998Z,-5.60
2023-03-02T05:47:02.594Z,-5.56
2023-03-02T05:52:06.430Z,-5.60
2023-03-02T05:57:09.987Z,-5.61
2023-03-02T06:02:14.174Z,-5.57
2023-03-02T06:07:18.436Z,-5.53
2023-03-02T06:12:22.694Z,-5.46
2023-03-02T06:17:27.100Z,-5.37
2023-03-02T06:22:33.961Z,-5.22
2023-03-02T06:27:39.194Z,-5.03
2023-03-02T06:32:43.433Z,-4.80
2023-03-02T06:37:48.292Z,-4.58
2023-03-02T06:42:53.261Z,-4.35
2023-03-02T06:47:56.981Z,-4.14
2023-03-02T06:53:01.228Z,-3.91
2023-03-02T06:58:05.023Z,-3.68
2023-03-02T07:03:08.869Z,-3.49
2023-03-02T07:08:12.646Z,-3.29
2023-03-02T07:13:16.459Z,-3.06
2023-03-02T07:18:21.060Z,-2.82
2023-03-02T07:23:25.612Z,-2.59
2023-03-02T07:28:29.620Z,-2.36
2023-03-02T07:33:33.362Z,-2.14
2023-03-02T07:38:38.431Z,-1.89
2023-03-02T07:43:43.087Z,-1.63
2023-03-02T07:48:47.362Z,-1.36
2023-03-02T07:53:51.110Z,-1.11
2023-03-02T07:58:55.304Z,-0.83
2023-03-02T08:03:59.056Z,-0.60
2023-03-02T08:09:04.707Z,-0.39
2023-03-02T08:14:08.467Z,-0.13
2023-03-02T08:19:12.137Z,0.10
2023-03-02T08:24:16.449Z,0.31
2023-03-02T08:29:20.619Z,0.60
2023-03-02T08:34:26.671Z,0.89
2023-03-02T08:39:32.465Z,1.14
2023-03-02T08:44:36.959Z,1.41
2023-03-02T08:49:40.851Z,1.67
2023-03-02T08:54:46.233Z,1.96
2023-03-02T08:59:52.706Z,2.18
2023-03-02T09:04:57.612Z,2.37
2023-03-02T09:10:02.349Z,2.56
2023-03-02T09:15:07.370Z,2.74
2023-03-02T09:20:12.496Z,2.91
2023-03-02T09:25:20.728Z,3.12
2023-03-02T09:30:26.878Z,3.38
2023-03-02T09:35:32.058Z,3.51
2023-03-02T09:40:41.352Z,3.65
2023-03-02T09:45:51.659Z,3.81
2023-03-02T09:50:59.604Z,3.99
2023-03-02T09:56:05.644Z,4.25
2023-03-02T10:01:16.838Z,4.51
2023-03-02T10:06:22.528Z,4.70
2023-03-02T10:11:36.009Z,4.82
2023-03-02T10:16:46.137Z,4.86
2023-03-02T10:22:16.265Z,4.99
2023-03-02T10:27:40.346Z,5.14
2023-03-02T10:32:46.642Z,5.20
2023-03-02T10:38:01.204Z,5.36
2023-03-02T10:43:06.555Z,5.42
2023-03-02T10:48:12.809Z,5.44
2023-03-02T10:53:20.326Z,5.57
2023-03-02T10:58:33.528Z,5.63
2023-03-02T11:03:38.299Z,5.75
2023-03-02T11:08:41.969Z,5.86
2023-03-02T11:13:46.673Z,6.07
2023-03-02T11:19:01.235Z,6.27
2023-03-02T11:24:27.284Z,6.39
2023-03-02T11:29:38.485Z,6.49
2023-03-02T11:34:45.421Z,6.47
2023-03-02T11:39:55.584Z,6.39
2023-03-02T11:45:23.106Z,6.45
2023-03-02T11:50:26.828Z,6.49
2023-03-02T11:55:36.585Z,6.58
2023-03-02T12:00:42.623Z,6.58
2023-03-02T12:05:54.030Z,6.64
2023-03-02T12:11:01.697Z,6.74
2023-03-02T12:16:19.930Z,6.89
2023-03-02T12:21:25.160Z,7.11
2023-03-02T12:26:33.313Z,7.01
2023-03-02T12:31:43.080Z,6.95
2023-03-02T12:36:47.048Z,6.98
2023-03-02T12:42:18.789Z,7.13
2023-03-02T12:47:30.323Z,7.18
2023-03-02T12:52:36.683Z,7.25
2023-03-02T12:57:52.326Z,7.38
2023-03-02T13:02:57.861Z,7.40
2023-03-02T13:08:06.502Z,7.44
2023-03-02T13:13:27.188Z,7.46
2023-03-02T13:18:33.812Z,7.46
2023-03-02T13:23:37.464Z,7.50
2023-03-02T13:28:42.313Z,7.53
2023-03-02T13:33:51.722Z,7.59
2023-03-02T13:39:00.012Z,7.66
2023-03-02T13:44:21.810Z,7.70
2023-03-02T13:49:32.847Z,7.76
2023-03-02T13:54:37.609Z,7.77
2023-03-02T13:59:42.371Z,7.79
2023-03-02T14:04:46.035Z,7.80
2023-03-02T14:09:50.012Z,7.85
2023-03-02T14:14:56.218Z,7.86
2023-03-02T14:19:59.748Z,7.80
2023-03-02T14:25:07.024Z,7.74
2023-03-02T14:30:17.344Z,7.84
2023-03-02T14:35:21.346Z,7.84
2023-03-02T14:40:28.051Z,7.86
2023-03-02T14:45:32.120Z,7.81
2023-03-02T14:50:39.526Z,7.77
2023-03-02T14:55:43.409Z,7.70
2023-03-02T15:00:47.755Z,7.66
2023-03-02T15:06:00.788Z,7.68
2023-03-02T15:11:06.900Z,7.63
2023-03-02T15:16:23.972Z,7.58
2023-03-02T15:21:27.902Z,7.52
2023-03-02T15:26:32.294Z,7.43
2023-03-02T15:31:36.362Z,7.35
2023-03-02T15:36:41.344Z,7.27
2023-03-02T15:41:45.229Z,7.06
2023-03-02T15:46:57.406Z,6.88
2023-03-02T15:52:01.996Z,6.67
2023-03-02T15:57:05.803Z,6.43
2023-03-02T16:02:10.698Z,6.16
2023-03-02T16:07:14.499Z,5.87
2023-03-02T16:12:23.734Z,5.56
2023-03-02T16:17:29.327Z,5.24
2023-03-02T16:22:34.393Z,4.97
2023-03-02T16:27:38.852Z,4.73
2023-03-02T16:32:42.782Z,4.52
2023-03-02T16:37:48.064Z,4.32
2023-03-02T16:42:53.312Z,4.16
2023-03-02T16:47:58.698Z,4.00
2023-03-02T16:53:04.658Z,3.82
2023-03-02T16:58:10.579Z,3.66
2023-03-02T17:03:18.567Z,3.51
2023-03-02T17:08:24.182Z,3.34
2023-03-02T17:13:32.133Z,3.21
2023-03-02T17:18:39.656Z,3.07
2023-03-02T17:23:49.180Z,2.90
2023-03-02T17:28:57.621Z,2.72
2023-03-02T17:34:04.985Z,2.52
2023-03-02T17:39:14.499Z,2.32
2023-03-02T17:44:23.625Z,2.13
2023-03-02T17:49:35.837Z,1.97
2023-03-02T17:54:46.166Z,1.79
2023-03-02T17:59:53.261Z,1.63
2023-03-02T18:04:57.982Z,1.48
2023-03-02T18:10:05.085Z,1.32
2023-03-02T18:15:09.800Z,1.17
2023-03-02T18:20:14.204Z,1.02
2023-03-02T18:25:19.232Z,0.88
2023-03-02T18:30:26.867Z,0.79
2023-03-02T18:35:32.764Z,0.67
2023-03-02T18:40:53.868Z,0.58
2023-03-02T18:45:58.907Z,0.63
2023-03-02T18:51:04.305Z,0.68
2023-03-02T18:56:10.557Z,0.69
2023-03-02T19:01:19.215Z,0.68
2023-03-02T19:06:26.607Z,0.65
2023-03-02T19:11:33.290Z,0.66
2023-03-02T19:16:42.580Z,0.68
2023-03-02T19:21:53.668Z,0.70
2023-03-02T19:27:02.815Z,0.65
2023-03-02T19:32:11.767Z,0.60
2023-03-02T19:37:17.705Z,0.61
2023-03-02T19:42:28.802Z,0.63
2023-03-02T19:47:39.687Z,0.62
2023-03-02T19:52:46.340Z,0.65
2023-03-02T19:58:00.133Z,0.61
2023-03-02T20:03:10.736Z,0.50
2023-03-02T20:08:19.067Z,0.44
2023-03-02T20:13:27.366Z,0.38
2023-03-02T20:18:33.766Z,0.35
2023-03-02T20:23:39.459Z,0.35
2023-03-02T20:28:44.939Z,0.35
2023-03-02T20:33:53.929Z,0.33
2023-03-02T20:39:17.742Z,0.32
2023-03-02T20:44:27.150Z,0.30
2023-03-02T20:49:33.678Z,0.28
2023-03-02T20:54:46.917Z,0.25
2023-03-02T20:59:53.336Z,0.27
2023-03-02T21:04:59.610Z,0.28
2023-03-02T21:10:08.376Z,0.29
2023-03-02T21:15:13.823Z,0.31
2023-03-02T21:20:21.445Z,0.29
2023-03-02T21:25:25.701Z,0.25
2023-03-02T21:30:37.942Z,0.20
2023-03-02T21:35:45.421Z,0.12
2023-03-02T21:40:49.881Z,0.09
2023-03-02T21:45:55.211Z,0.06
2023-03-02T21:51:00.247Z,0.09
2023-03-02T21:56:04.950Z,0.11
2023-03-02T22:01:08.992Z,0.12
2023-03-02T22:06:23.935Z,0.14
2023-03-02T22:11:36.149Z,0.16
2023-03-02T22:16:43.622Z,0.11
2023-03-02T22:21:49.767Z,0.09
2023-03-02T22:27:20.628Z,0.12
2023-03-02T22:32:38.606Z,0.15
2023-03-02T22:37:44.847Z,0.10
2023-03-02T22:42:49.645Z,0.03
2023-03-02T22:47:54.252Z,-0.06
2023-03-02T22:53:17.375Z,-0.05
2023-03-02T22:58:46.826Z,-0.03
2023-03-02T23:03:54.268Z,-0.05
2023-03-02T23:09:00.856Z,-0.05
2023-03-02T23:14:19.510Z,-0.03
2023-03-02T23:19:23.536Z,-0.08
2023-03-02T23:24:28.608Z,-0.10
2023-03-02T23:29:32.635Z,-0.16
2023-03-02T23:34:37.254Z,-0.27
2023-03-02T23:39:41.042Z,-0.35
2023-03-02T23:44:45.860Z,-0.34
2023-03-02T23:49:50.408Z,-0.31
2023-03-02T23:54:54.494Z,-0.30
